createdAt,value
2017-09-12T00:02:18.322Z,99273
2017-09-12T00:07:21.562Z,99264
2017-09-12T00:12:25.521Z,99271
2017-09-12T00:17:28.733Z,99272
2017-09-12T00:22:31.922Z,99278
2017-09-12T00:27:35.151Z,99274
2017-09-12T00:32:38.355Z,99266
2017-09-12T00:37:41.571Z,99274
2017-09-12T00:42:44.766Z,99274
2017-09-12T00:47:47.966Z,99280
2017-09-12T00:52:51.129Z,99276
2017-09-12T00:57:54.337Z,99277
2017-09-12T01:02:58.297Z,99274
2017-09-12T01:08:01.503Z,99273
2017-09-12T01:13:04.705Z,99271
2017-09-12T01:18:07.868Z,99268
2017-09-12T01:23:11.090Z,99266
2017-09-12T01:28:15.062Z,99283
2017-09-12T01:33:18.409Z,99279
2017-09-12T01:38:21.592Z,99271
2017-09-12T01:43:26.023Z,99283
2017-09-12T01:48:29.233Z,99278
2017-09-12T01:53:32.425Z,99279
2017-09-12T01:58:35.636Z,99276
2017-09-12T02:03:38.836Z,99273
2017-09-12T02:08:42.042Z,99280
2017-09-12T02:13:45.232Z,99278
2017-09-12T02:18:48.436Z,99280
2017-09-12T02:23:51.656Z,99289
2017-09-12T02:28:54.882Z,99288
2017-09-12T02:33:58.084Z,99270
2017-09-12T02:39:01.297Z,99265
2017-09-12T02:44:04.488Z,99272
2017-09-12T02:49:07.697Z,99267
2017-09-12T02:54:10.902Z,99276
2017-09-12T02:59:14.113Z,99275
2017-09-12T03:04:17.323Z,99274
2017-09-12T03:09:20.636Z,99287
2017-09-12T03:14:23.855Z,99294
2017-09-12T03:19:27.060Z,99297
2017-09-12T03:24:30.281Z,99295
2017-09-12T03:29:33.481Z,99296
2017-09-12T03:34:36.695Z,99297
2017-09-12T03:39:39.899Z,99304
2017-09-12T03:44:43.126Z,99321
2017-09-12T03:49:46.349Z,99315
2017-09-12T03:54:49.577Z,99318
2017-09-12T03:59:52.786Z,99320
2017-09-12T04:04:55.991Z,99326
2017-09-12T04:09:59.353Z,99335
2017-09-12T04:15:02.584Z,99327
2017-09-12T04:20:06.525Z,99333
2017-09-12T04:25:09.713Z,99338
2017-09-12T04:30:13.674Z,99334
2017-09-12T04:35:16.913Z,99341
2017-09-12T04:40:20.132Z,99334
2017-09-12T04:45:23.949Z,99349
2017-09-12T04:50:28.012Z,99353
2017-09-12T04:55:31.225Z,99364
2017-09-12T05:00:34.424Z,99371
2017-09-12T05:05:37.725Z,99382
2017-09-12T05:10:41.674Z,99372
2017-09-12T05:15:44.884Z,99382
2017-09-12T05:20:48.077Z,99389
2017-09-12T05:25:51.303Z,99401
2017-09-12T05:30:54.509Z,99395
2017-09-12T05:35:57.701Z,99411
2017-09-12T05:41:00.993Z,99409
2017-09-12T05:46:05.104Z,99408
2017-09-12T05:51:08.318Z,99420
2017-09-12T05:56:12.308Z,99428
2017-09-12T06:01:15.511Z,99434
2017-09-12T06:06:18.727Z,99422
2017-09-12T06:11:21.926Z,99439
2017-09-12T06:16:25.201Z,99438
2017-09-12T06:21:28.430Z,99430
2017-09-12T06:26:31.667Z,99426
2017-09-12T06:31:34.884Z,99428
2017-09-12T06:36:38.089Z,99430
2017-09-12T06:41:41.289Z,99438
2017-09-12T06:46:44.512Z,99438
2017-09-12T06:51:48.518Z,99441
2017-09-12T06:56:51.734Z,99446
2017-09-12T07:01:54.995Z,99449
2017-09-12T07:06:58.222Z,99454
2017-09-12T07:12:01.480Z,99457
2017-09-12T07:17:05.452Z,99460
2017-09-12T07:22:08.667Z,99465
2017-09-12T07:27:11.885Z,99474
2017-09-12T07:32:15.107Z,99470
2017-09-12T07:37:18.331Z,99477
2017-09-12T07:42:22.364Z,99499
2017-09-12T07:47:25.570Z,99512
2017-09-12T07:52:28.772Z,99515
2017-09-12T07:57:32.719Z,99524
2017-09-12T08:02:35.921Z,99539
2017-09-12T08:07:39.174Z,99535
2017-09-12T08:12:42.385Z,99534
2017-09-12T08:17:45.588Z,99544
2017-09-12T08:22:48.800Z,99547
2017-09-12T08:27:52.069Z,99549
2017-09-12T08:32:55.261Z,99555
2017-09-12T08:37:58.466Z,99568
2017-09-12T08:43:01.707Z,99576
2017-09-12T08:48:04.912Z,99574
2017-09-12T08:53:09.080Z,99579
2017-09-12T08:58:13.062Z,99569
2017-09-12T09:03:16.271Z,99569
2017-09-12T09:08:19.476Z,99574
2017-09-12T09:13:22.664Z,99578
2017-09-12T09:18:25.874Z,99578
2017-09-12T09:23:32.602Z,99582
2017-09-12T09:28:36.373Z,99577
2017-09-12T09:33:39.603Z,99577
2017-09-12T09:38:42.833Z,99572
2017-09-12T09:43:46.591Z,99572
2017-09-12T09:48:50.548Z,99578
2017-09-12T09:53:53.753Z,99586
2017-09-12T09:58:56.988Z,99587
2017-09-12T10:04:00.212Z,99596
2017-09-12T10:09:03.420Z,99596
2017-09-12T10:14:06.630Z,99615
2017-09-12T10:19:09.834Z,99619
2017-09-12T10:24:13.046Z,99639
2017-09-12T10:29:16.265Z,99645
2017-09-12T10:34:20.256Z,99651
2017-09-12T10:39:23.479Z,99652
2017-09-12T10:44:26.684Z,99647
2017-09-12T10:49:29.889Z,99637
2017-09-12T10:54:33.123Z,99640
2017-09-12T10:59:37.104Z,99636
2017-09-12T11:04:40.309Z,99640
2017-09-12T11:09:43.516Z,99645
2017-09-12T11:14:46.682Z,99668
2017-09-12T11:19:49.930Z,99684
2017-09-12T11:24:53.407Z,99690
2017-09-12T11:29:56.636Z,99693
2017-09-12T11:34:59.867Z,99695
2017-09-12T11:40:03.058Z,99685
2017-09-12T11:45:06.275Z,99680
2017-09-12T11:50:09.469Z,99684
2017-09-12T11:55:12.657Z,99687
2017-09-12T12:00:15.876Z,99679
2017-09-12T12:05:19.084Z,99684
2017-09-12T12:10:22.306Z,99689
2017-09-12T12:15:25.736Z,99695
2017-09-12T12:20:28.955Z,99697
2017-09-12T12:25:32.922Z,99692
2017-09-12T12:30:36.104Z,99691
2017-09-12T12:35:39.323Z,99699
2017-09-12T12:40:42.522Z,99703
2017-09-12T12:45:45.753Z,99695
2017-09-12T12:50:48.978Z,99696
2017-09-12T12:55:52.177Z,99703
2017-09-12T13:00:55.540Z,99698
2017-09-12T13:05:59.518Z,99707
2017-09-12T13:11:02.730Z,99704
2017-09-12T13:16:05.943Z,99708
2017-09-12T13:21:09.153Z,99716
2017-09-12T13:26:12.381Z,99722
2017-09-12T13:31:15.584Z,99722
2017-09-12T13:36:18.814Z,99723
2017-09-12T13:41:22.020Z,99720
2017-09-12T13:46:25.245Z,99729
2017-09-12T13:51:28.460Z,99721
2017-09-12T13:56:31.676Z,99722
2017-09-12T14:01:34.883Z,99733
2017-09-12T14:06:38.090Z,99741
2017-09-12T14:11:41.299Z,99740
2017-09-12T14:16:44.538Z,99730
2017-09-12T14:21:47.750Z,99738
2017-09-12T14:26:50.960Z,99747
2017-09-12T14:31:54.956Z,99755
2017-09-12T14:36:58.192Z,99762
2017-09-12T14:42:01.388Z,99761
2017-09-12T14:47:04.608Z,99772
2017-09-12T14:52:07.831Z,99774
2017-09-12T14:57:11.807Z,99775
2017-09-12T15:02:15.024Z,99777
2017-09-12T15:07:18.224Z,99790
2017-09-12T15:12:21.434Z,99795
2017-09-12T15:17:24.681Z,99792
2017-09-12T15:22:28.663Z,99802
2017-09-12T15:27:31.878Z,99804
2017-09-12T15:32:35.090Z,99807
2017-09-12T15:37:38.302Z,99801
2017-09-12T15:42:41.526Z,99805
2017-09-12T15:47:45.489Z,99803
2017-09-12T15:52:48.720Z,99794
2017-09-12T15:57:51.896Z,99842
2017-09-12T16:02:55.134Z,99859
2017-09-12T16:07:58.426Z,99842
2017-09-12T16:13:01.624Z,99839
2017-09-12T16:18:04.845Z,99834
2017-09-12T16:23:08.150Z,99845
2017-09-12T16:28:11.384Z,99841
2017-09-12T16:33:14.618Z,99850
2017-09-12T16:38:18.574Z,99854
2017-09-12T16:43:21.786Z,99859
2017-09-12T16:48:24.989Z,99863
2017-09-12T16:53:28.173Z,99871
2017-09-12T16:58:31.393Z,99882
2017-09-12T17:03:34.634Z,99907
2017-09-12T17:08:39.578Z,99936
2017-09-12T17:13:42.774Z,99944
2017-09-12T17:18:46.107Z,99948
2017-09-12T17:23:49.355Z,99960
2017-09-12T17:28:53.329Z,99949
2017-09-12T17:33:56.665Z,99949
2017-09-12T17:39:00.210Z,99947
2017-09-12T17:44:03.459Z,99952
2017-09-12T17:49:06.682Z,99956
2017-09-12T17:54:09.927Z,99954
2017-09-12T17:59:13.943Z,99955
2017-09-12T18:04:17.912Z,99960
2017-09-12T18:09:21.191Z,99974
2017-09-12T18:14:24.444Z,99979
2017-09-12T18:19:27.660Z,99977
2017-09-12T18:24:30.936Z,99990
2017-09-12T18:29:34.126Z,99989
2017-09-12T18:34:37.336Z,100000
2017-09-12T18:39:40.542Z,100000
2017-09-12T18:44:43.752Z,100015
2017-09-12T18:49:46.992Z,100010
2017-09-12T18:54:50.214Z,100012
2017-09-12T18:59:53.414Z,100005
2017-09-12T19:04:56.632Z,100012
2017-09-12T19:09:59.856Z,100025
2017-09-12T19:15:03.835Z,100040
2017-09-12T19:20:07.056Z,100036
2017-09-12T19:25:10.320Z,100044
2017-09-12T19:30:14.292Z,100049
2017-09-12T19:35:17.516Z,100045
2017-09-12T19:40:20.791Z,100045
2017-09-12T19:45:24.011Z,100049
2017-09-12T19:50:27.209Z,100040
2017-09-12T19:55:30.471Z,100044
2017-09-12T20:00:34.469Z,100046
2017-09-12T20:05:37.880Z,100041
2017-09-12T20:10:41.125Z,100051
2017-09-12T20:15:45.127Z,100056
2017-09-12T20:20:49.121Z,100041
2017-09-12T20:25:52.335Z,100049
2017-09-12T20:30:55.657Z,100056
2017-09-12T20:35:58.880Z,100059
2017-09-12T20:41:02.867Z,100059
2017-09-12T20:46:06.100Z,100056
2017-09-12T20:51:09.283Z,100055
2017-09-12T20:56:12.480Z,100066
2017-09-12T21:01:15.706Z,100077
2017-09-12T21:06:18.913Z,100063
2017-09-12T21:11:22.150Z,100090
2017-09-12T21:16:25.383Z,100086
2017-09-12T21:21:28.595Z,100092
2017-09-12T21:26:31.836Z,100091
2017-09-12T21:31:35.031Z,100106
2017-09-12T21:36:38.227Z,100114
2017-09-12T21:41:41.438Z,100120
2017-09-12T21:46:44.690Z,100125
2017-09-12T21:51:47.896Z,100127
2017-09-12T21:56:51.071Z,100134
2017-09-12T22:01:54.286Z,100126
2017-09-12T22:06:57.487Z,100114
2017-09-12T22:12:00.691Z,100111
2017-09-12T22:17:03.915Z,100098
2017-09-12T22:22:07.133Z,100107
2017-09-12T22:27:10.361Z,100098
2017-09-12T22:32:14.327Z,100094
2017-09-12T22:37:17.559Z,100087
2017-09-12T22:42:20.804Z,100081
2017-09-12T22:47:24.796Z,100074
2017-09-12T22:52:27.989Z,100069
2017-09-12T22:57:31.267Z,100054
2017-09-12T23:02:34.473Z,100064
2017-09-12T23:07:37.733Z,100058
2017-09-12T23:12:40.963Z,100058
2017-09-12T23:17:44.940Z,100050
2017-09-12T23:22:48.134Z,100036
2017-09-12T23:27:51.370Z,100031
2017-09-12T23:32:54.581Z,100042
2017-09-12T23:37:57.773Z,100023
2017-09-12T23:43:01.011Z,100024
2017-09-12T23:48:04.737Z,100018
2017-09-12T23:53:08.725Z,99995
2017-09-12T23:58:11.898Z,99998
